Midway, AR (72651)

12:56 PM CDT on April 18, 2015 (GMT -0500)
APRSWXNET | | Change Station
CLOSE
Current Station
Personal Weather Station
Location: Gassville, AR
Elevation: 1115 ft
Nearby Weather Stations

Elev 1115 ft 36.26 °N, 92.49 °W | Updated 22 minutes ago

Overcast
Overcast
67 °F
Feels Like 67 °F
N
2
Wind Variable Wind from ENE
Gusts 4.0 mph

Today
High -- | Low -- °F
--% Chance of Precip.
Yesterday
High -- | Low -- °F
Precip. -- in
6:32 AM 7:46 PM
Waning Crescent, 0% visible
Pressure 29.95 in
Visibility 8.0 miles
Clouds Scattered Clouds 1500 ft
Overcast 3000 ft
Dew Point 63 °F
Humidity 86%
Rainfall in
Snow Depth Not available.
UV 3 out of 12
Pollen 3.30 out of 12
Air Quality Not available.
Flu Activity Sporadic
METAR KBPK 181753Z AUTO 15005KT 8SM SCT015 OVC030 19/16 A2996 RMK AO2 SLP140 T01940156 10194 20144 58009

More Conditions Fewer Conditions

Pressure 29.95 in
Visibility 8.0 miles
Clouds Scattered Clouds 1500 ft
Overcast 3000 ft
Dew Point 63 °F
Humidity 86%
Rainfall in
Snow Depth Not available.
UV 3 out of 12
Pollen 3.30 out of 12
Air Quality Not available.
Flu Activity Sporadic
METAR KBPK 181753Z AUTO 15005KT 8SM SCT015 OVC030 19/16 A2996 RMK AO2 SLP140 T01940156 10194 20144 58009

More Conditions Fewer Conditions

10-Day Weather Forecast

Almanac

Astronomy

Apr. 18, 2015 Rise Set
Actual Time
Civil Twilight
Nautical Twilight
Astronomical Twilight
Moon
Length of Visible Light
Length of Day
Tomorrow will be .
, % of the Moon is Illuminated

Today's Extremes

State Highs State Lows

Community

WunderPhotos

Upload Photos

1,814,470 photos uploaded!

WunderBlogs® & News

Nearby

Air Quality

  Air Quality AQ Index Pollutant
Not available.

Snow Depth

Station Depth Elevation

Earthquake Activity

City Distance Mag. Time & Date
Minimum magnitude displayed is 2.5.

Coastal Water Temperatures

Place Temperature

Stations

Nearby Weather Stations

Station Location Temp. Windchill Dew Point Humidity Wind Precip. Elev Updated Type